sensor_id;sensor_type;location;lat;lon;timestamp;temperature;humidity
51476;DHT22;37554;50.362;7.568;2022-10-31T00:00:44;21.10;59.60
51476;DHT22;37554;50.362;7.568;2022-10-31T00:03:10;21.10;60.30
51476;DHT22;37554;50.362;7.568;2022-10-31T00:05:36;21.10;59.60
51476;DHT22;37554;50.362;7.568;2022-10-31T00:08:05;21.10;59.60
51476;DHT22;37554;50.362;7.568;2022-10-31T00:10:30;21.10;59.60
51476;DHT22;37554;50.362;7.568;2022-10-31T00:12:56;21.10;59.60
51476;DHT22;37554;50.362;7.568;2022-10-31T00:15:21;21.10;59.60
51476;DHT22;37554;50.362;7.568;2022-10-31T00:17:47;21.10;59.60
51476;DHT22;37554;50.362;7.568;2022-10-31T00:20:13;21.10;59.60
51476;DHT22;37554;50.362;7.568;2022-10-31T00:22:38;21.10;59.60
51476;DHT22;37554;50.362;7.568;2022-10-31T00:25:04;21.10;59.60
51476;DHT22;37554;50.362;7.568;2022-10-31T00:27:29;21.10;59.60
51476;DHT22;37554;50.362;7.568;2022-10-31T00:29:55;21.10;59.70
51476;DHT22;37554;50.362;7.568;2022-10-31T00:32:21;21.10;59.60
51476;DHT22;37554;50.362;7.568;2022-10-31T00:34:46;21.10;59.60
51476;DHT22;37554;50.362;7.568;2022-10-31T00:37:12;21.10;59.60
51476;DHT22;37554;50.362;7.568;2022-10-31T00:39:37;21.10;59.60
51476;DHT22;37554;50.362;7.568;2022-10-31T00:42:03;21.10;59.60
51476;DHT22;37554;50.362;7.568;2022-10-31T00:44:28;21.10;59.60
51476;DHT22;37554;50.362;7.568;2022-10-31T00:46:54;21.10;59.60
51476;DHT22;37554;50.362;7.568;2022-10-31T00:49:19;21.00;59.60
51476;DHT22;37554;50.362;7.568;2022-10-31T00:51:45;21.10;59.60
51476;DHT22;37554;50.362;7.568;2022-10-31T00:54:10;21.00;59.60
51476;DHT22;37554;50.362;7.568;2022-10-31T00:56:36;21.10;59.60
51476;DHT22;37554;50.362;7.568;2022-10-31T00:59:02;21.00;59.60
51476;DHT22;37554;50.362;7.568;2022-10-31T01:01:27;21.00;59.60
51476;DHT22;37554;50.362;7.568;2022-10-31T01:03:53;21.00;59.60
51476;DHT22;37554;50.362;7.568;2022-10-31T01:06:18;21.00;60.20
51476;DHT22;37554;50.362;7.568;2022-10-31T01:08:44;21.00;59.60
51476;DHT22;37554;50.362;7.568;2022-10-31T01:11:16;21.00;59.60
51476;DHT22;37554;50.362;7.568;2022-10-31T01:13:42;21.00;59.60
51476;DHT22;37554;50.362;7.568;2022-10-31T01:16:11;21.00;59.60
51476;DHT22;37554;50.362;7.568;2022-10-31T01:18:37;21.00;59.60
51476;DHT22;37554;50.362;7.568;2022-10-31T01:21:08;21.00;59.60
51476;DHT22;37554;50.362;7.568;2022-10-31T01:23:34;21.00;59.60
51476;DHT22;37554;50.362;7.568;2022-10-31T01:26:26;21.00;59.60
51476;DHT22;37554;50.362;7.568;2022-10-31T01:28:53;21.00;59.60
51476;DHT22;37554;50.362;7.568;2022-10-31T01:31:20;21.00;59.60
51476;DHT22;37554;50.362;7.568;2022-10-31T01:33:46;21.00;59.60
51476;DHT22;37554;50.362;7.568;2022-10-31T01:36:19;21.00;59.60
51476;DHT22;37554;50.362;7.568;2022-10-31T01:38:46;21.00;59.60
51476;DHT22;37554;50.362;7.568;2022-10-31T01:41:14;21.00;59.60
51476;DHT22;37554;50.362;7.568;2022-10-31T01:44:03;21.00;59.60
51476;DHT22;37554;50.362;7.568;2022-10-31T01:46:39;21.00;59.60
51476;DHT22;37554;50.362;7.568;2022-10-31T01:49:15;21.00;59.60
51476;DHT22;37554;50.362;7.568;2022-10-31T01:51:46;21.00;59.60
51476;DHT22;37554;50.362;7.568;2022-10-31T01:54:15;21.00;59.60
51476;DHT22;37554;50.362;7.568;2022-10-31T01:56:47;21.00;59.60
51476;DHT22;37554;50.362;7.568;2022-10-31T01:59:16;21.00;59.60
51476;DHT22;37554;50.362;7.568;2022-10-31T02:01:43;21.00;59.60
51476;DHT22;37554;50.362;7.568;2022-10-31T02:04:09;21.00;59.60
51476;DHT22;37554;50.362;7.568;2022-10-31T02:06:44;21.00;59.60
51476;DHT22;37554;50.362;7.568;2022-10-31T02:09:11;21.00;59.60
51476;DHT22;37554;50.362;7.568;2022-10-31T02:11:38;21.00;59.60
51476;DHT22;37554;50.362;7.568;2022-10-31T02:14:04;21.00;59.60
51476;DHT22;37554;50.362;7.568;2022-10-31T02:16:30;21.00;59.60
51476;DHT22;37554;50.362;7.568;2022-10-31T02:18:56;21.00;59.60
51476;DHT22;37554;50.362;7.568;2022-10-31T02:21:41;21.00;59.60
51476;DHT22;37554;50.362;7.568;2022-10-31T02:27:13;21.00;59.60
51476;DHT22;37554;50.362;7.568;2022-10-31T02:30:11;21.00;59.60
51476;DHT22;37554;50.362;7.568;2022-10-31T02:32:54;21.00;59.60
51476;DHT22;37554;50.362;7.568;2022-10-31T02:41:03;21.00;59.60
51476;DHT22;37554;50.362;7.568;2022-10-31T02:46:49;21.00;59.60
51476;DHT22;37554;50.362;7.568;2022-10-31T02:51:47;21.00;59.60
51476;DHT22;37554;50.362;7.568;2022-10-31T02:54:24;21.00;59.60
51476;DHT22;37554;50.362;7.568;2022-10-31T02:56:55;20.90;59.60
51476;DHT22;37554;50.362;7.568;2022-10-31T02:59:22;21.00;59.60
51476;DHT22;37554;50.362;7.568;2022-10-31T03:01:54;20.90;59.60
51476;DHT22;37554;50.362;7.568;2022-10-31T03:15:37;20.90;59.60
51476;DHT22;37554;50.362;7.568;2022-10-31T03:18:08;20.90;59.60
51476;DHT22;37554;50.362;7.568;2022-10-31T03:20:45;20.90;59.60
51476;DHT22;37554;50.362;7.568;2022-10-31T03:23:16;21.00;59.70
51476;DHT22;37554;50.362;7.568;2022-10-31T03:25:43;20.90;59.60
51476;DHT22;37554;50.362;7.568;2022-10-31T03:28:12;20.90;59.60
51476;DHT22;37554;50.362;7.568;2022-10-31T03:30:42;20.90;59.60
51476;DHT22;37554;50.362;7.568;2022-10-31T03:33:11;20.90;59.60
51476;DHT22;37554;50.362;7.568;2022-10-31T03:35:41;20.90;59.60
51476;DHT22;37554;50.362;7.568;2022-10-31T03:38:08;20.90;59.60
51476;DHT22;37554;50.362;7.568;2022-10-31T03:40:37;21.00;59.70
51476;DHT22;37554;50.362;7.568;2022-10-31T03:43:06;20.90;59.60
51476;DHT22;37554;50.362;7.568;2022-10-31T03:45:38;21.00;59.70
51476;DHT22;37554;50.362;7.568;2022-10-31T03:48:05;20.90;59.60
51476;DHT22;37554;50.362;7.568;2022-10-31T03:50:40;20.90;59.60
51476;DHT22;37554;50.362;7.568;2022-10-31T03:53:24;20.90;59.70
51476;DHT22;37554;50.362;7.568;2022-10-31T03:56:41;20.90;59.60
51476;DHT22;37554;50.362;7.568;2022-10-31T03:59:08;20.90;59.60
51476;DHT22;37554;50.362;7.568;2022-10-31T04:01:51;20.90;59.60
51476;DHT22;37554;50.362;7.568;2022-10-31T04:04:19;20.90;59.70
51476;DHT22;37554;50.362;7.568;2022-10-31T04:06:46;20.90;59.60
51476;DHT22;37554;50.362;7.568;2022-10-31T04:09:13;20.90;59.60
51476;DHT22;37554;50.362;7.568;2022-10-31T04:11:50;20.90;59.60
51476;DHT22;37554;50.362;7.568;2022-10-31T04:14:16;20.90;59.60
51476;DHT22;37554;50.362;7.568;2022-10-31T04:16:43;20.90;59.70
51476;DHT22;37554;50.362;7.568;2022-10-31T04:19:10;20.90;59.60
51476;DHT22;37554;50.362;7.568;2022-10-31T04:21:36;20.90;59.60
51476;DHT22;37554;50.362;7.568;2022-10-31T04:24:02;20.90;59.60
51476;DHT22;37554;50.362;7.568;2022-10-31T04:26:27;20.90;59.60
51476;DHT22;37554;50.362;7.568;2022-10-31T04:28:53;20.90;59.60
51476;DHT22;37554;50.362;7.568;2022-10-31T04:31:19;20.90;59.60
51476;DHT22;37554;50.362;7.568;2022-10-31T04:33:45;20.90;59.60
51476;DHT22;37554;50.362;7.568;2022-10-31T04:36:11;20.90;59.60
51476;DHT22;37554;50.362;7.568;2022-10-31T04:38:36;20.90;59.60
51476;DHT22;37554;50.362;7.568;2022-10-31T04:41:02;20.90;59.60
51476;DHT22;37554;50.362;7.568;2022-10-31T04:43:27;20.90;59.60
51476;DHT22;37554;50.362;7.568;2022-10-31T04:45:53;20.90;59.60
51476;DHT22;37554;50.362;7.568;2022-10-31T04:48:19;20.90;59.60
51476;DHT22;37554;50.362;7.568;2022-10-31T04:50:44;20.90;59.60
51476;DHT22;37554;50.362;7.568;2022-10-31T04:53:10;20.90;59.60
51476;DHT22;37554;50.362;7.568;2022-10-31T04:55:36;20.90;59.60
51476;DHT22;37554;50.362;7.568;2022-10-31T04:58:02;20.90;59.60
51476;DHT22;37554;50.362;7.568;2022-10-31T05:00:27;20.90;59.60
51476;DHT22;37554;50.362;7.568;2022-10-31T05:02:55;20.90;59.60
51476;DHT22;37554;50.362;7.568;2022-10-31T05:05:24;20.90;59.60
51476;DHT22;37554;50.362;7.568;2022-10-31T05:07:51;20.90;59.60
51476;DHT22;37554;50.362;7.568;2022-10-31T05:10:19;20.90;59.70
51476;DHT22;37554;50.362;7.568;2022-10-31T05:12:49;20.90;59.60
51476;DHT22;37554;50.362;7.568;2022-10-31T05:15:16;20.90;59.60
51476;DHT22;37554;50.362;7.568;2022-10-31T05:17:43;20.90;59.60
51476;DHT22;37554;50.362;7.568;2022-10-31T05:20:10;20.90;59.60
51476;DHT22;37554;50.362;7.568;2022-10-31T05:22:35;20.90;59.60
51476;DHT22;37554;50.362;7.568;2022-10-31T05:25:01;20.90;59.60
51476;DHT22;37554;50.362;7.568;2022-10-31T05:27:26;20.90;59.60
51476;DHT22;37554;50.362;7.568;2022-10-31T05:29:52;20.90;59.60
51476;DHT22;37554;50.362;7.568;2022-10-31T05:32:18;20.90;59.60
51476;DHT22;37554;50.362;7.568;2022-10-31T05:34:43;20.80;59.60
51476;DHT22;37554;50.362;7.568;2022-10-31T05:37:09;20.90;59.60
51476;DHT22;37554;50.362;7.568;2022-10-31T05:39:34;20.80;59.60
51476;DHT22;37554;50.362;7.568;2022-10-31T05:42:00;20.90;59.60
51476;DHT22;37554;50.362;7.568;2022-10-31T05:44:25;20.80;59.50
51476;DHT22;37554;50.362;7.568;2022-10-31T05:46:51;20.80;59.60
51476;DHT22;37554;50.362;7.568;2022-10-31T05:49:17;20.90;59.60
51476;DHT22;37554;50.362;7.568;2022-10-31T05:51:43;20.80;59.60
51476;DHT22;37554;50.362;7.568;2022-10-31T05:54:08;20.80;59.60
51476;DHT22;37554;50.362;7.568;2022-10-31T05:56:34;20.80;59.50
51476;DHT22;37554;50.362;7.568;2022-10-31T05:59:00;20.80;59.50
51476;DHT22;37554;50.362;7.568;2022-10-31T06:01:25;20.80;59.50
51476;DHT22;37554;50.362;7.568;2022-10-31T06:03:51;20.80;60.20
51476;DHT22;37554;50.362;7.568;2022-10-31T06:06:16;20.80;59.50
51476;DHT22;37554;50.362;7.568;2022-10-31T06:08:42;20.80;59.60
51476;DHT22;37554;50.362;7.568;2022-10-31T06:11:07;20.80;59.50
51476;DHT22;37554;50.362;7.568;2022-10-31T06:13:33;20.80;59.50
51476;DHT22;37554;50.362;7.568;2022-10-31T06:15:58;20.80;59.60
51476;DHT22;37554;50.362;7.568;2022-10-31T06:18:24;20.80;59.60
51476;DHT22;37554;50.362;7.568;2022-10-31T06:20:50;20.80;59.60
51476;DHT22;37554;50.362;7.568;2022-10-31T06:23:15;20.80;59.60
51476;DHT22;37554;50.362;7.568;2022-10-31T06:25:41;20.80;59.50
51476;DHT22;37554;50.362;7.568;2022-10-31T06:28:06;20.80;59.60
51476;DHT22;37554;50.362;7.568;2022-10-31T06:30:32;20.80;59.50
51476;DHT22;37554;50.362;7.568;2022-10-31T06:33:04;20.80;59.50
51476;DHT22;37554;50.362;7.568;2022-10-31T06:35:30;20.80;59.60
51476;DHT22;37554;50.362;7.568;2022-10-31T06:37:56;20.80;59.60
51476;DHT22;37554;50.362;7.568;2022-10-31T06:40:21;20.80;59.60
51476;DHT22;37554;50.362;7.568;2022-10-31T06:42:47;20.80;59.60
51476;DHT22;37554;50.362;7.568;2022-10-31T06:45:13;20.80;59.50
51476;DHT22;37554;50.362;7.568;2022-10-31T06:47:38;20.80;59.50
51476;DHT22;37554;50.362;7.568;2022-10-31T06:50:04;20.80;59.50
51476;DHT22;37554;50.362;7.568;2022-10-31T06:52:30;20.80;59.50
51476;DHT22;37554;50.362;7.568;2022-10-31T06:54:56;20.80;59.50
51476;DHT22;37554;50.362;7.568;2022-10-31T06:57:21;20.80;59.50
51476;DHT22;37554;50.362;7.568;2022-10-31T06:59:47;20.80;59.60
51476;DHT22;37554;50.362;7.568;2022-10-31T07:02:12;20.80;59.50
51476;DHT22;37554;50.362;7.568;2022-10-31T07:04:38;20.80;59.50
51476;DHT22;37554;50.362;7.568;2022-10-31T07:07:03;20.80;59.50
51476;DHT22;37554;50.362;7.568;2022-10-31T07:09:29;20.80;59.50
51476;DHT22;37554;50.362;7.568;2022-10-31T07:11:55;20.80;59.50
51476;DHT22;37554;50.362;7.568;2022-10-31T07:14:20;20.80;59.50
51476;DHT22;37554;50.362;7.568;2022-10-31T07:16:50;20.80;59.50
51476;DHT22;37554;50.362;7.568;2022-10-31T07:19:16;20.80;59.50
51476;DHT22;37554;50.362;7.568;2022-10-31T07:21:42;20.80;59.50
51476;DHT22;37554;50.362;7.568;2022-10-31T07:24:08;20.80;59.50
51476;DHT22;37554;50.362;7.568;2022-10-31T07:26:33;20.80;59.50
51476;DHT22;37554;50.362;7.568;2022-10-31T07:28:59;20.80;59.50
51476;DHT22;37554;50.362;7.568;2022-10-31T07:31:25;20.80;59.50
51476;DHT22;37554;50.362;7.568;2022-10-31T07:33:51;20.80;59.50
51476;DHT22;37554;50.362;7.568;2022-10-31T07:36:16;20.80;59.50
51476;DHT22;37554;50.362;7.568;2022-10-31T07:38:42;20.80;59.50
51476;DHT22;37554;50.362;7.568;2022-10-31T07:41:08;20.80;59.40
51476;DHT22;37554;50.362;7.568;2022-10-31T07:43:34;20.80;59.50
51476;DHT22;37554;50.362;7.568;2022-10-31T07:46:00;20.80;59.50
51476;DHT22;37554;50.362;7.568;2022-10-31T07:48:25;20.80;59.40
51476;DHT22;37554;50.362;7.568;2022-10-31T07:50:51;20.80;59.40
51476;DHT22;37554;50.362;7.568;2022-10-31T07:53:16;20.80;59.50
51476;DHT22;37554;50.362;7.568;2022-10-31T07:55:43;20.80;59.50
51476;DHT22;37554;50.362;7.568;2022-10-31T07:58:11;20.80;59.50
51476;DHT22;37554;50.362;7.568;2022-10-31T08:00:38;20.80;59.50
51476;DHT22;37554;50.362;7.568;2022-10-31T08:03:16;20.80;60.10
51476;DHT22;37554;50.362;7.568;2022-10-31T08:05:42;20.80;59.40
51476;DHT22;37554;50.362;7.568;2022-10-31T08:08:11;20.80;59.50
51476;DHT22;37554;50.362;7.568;2022-10-31T08:10:37;20.80;59.40
51476;DHT22;37554;50.362;7.568;2022-10-31T08:13:04;20.80;60.00
51476;DHT22;37554;50.362;7.568;2022-10-31T08:15:30;20.80;59.40
51476;DHT22;37554;50.362;7.568;2022-10-31T08:17:56;20.80;59.40
51476;DHT22;37554;50.362;7.568;2022-10-31T08:20:22;20.80;59.40
51476;DHT22;37554;50.362;7.568;2022-10-31T08:25:24;20.80;59.40
51476;DHT22;37554;50.362;7.568;2022-10-31T08:27:53;20.80;59.40
51476;DHT22;37554;50.362;7.568;2022-10-31T08:30:20;20.80;59.40
51476;DHT22;37554;50.362;7.568;2022-10-31T08:32:46;20.80;59.40
51476;DHT22;37554;50.362;7.568;2022-10-31T08:35:12;20.80;59.40
51476;DHT22;37554;50.362;7.568;2022-10-31T08:37:37;20.80;59.40
51476;DHT22;37554;50.362;7.568;2022-10-31T08:40:04;20.80;59.40
51476;DHT22;37554;50.362;7.568;2022-10-31T08:42:30;20.80;59.40
51476;DHT22;37554;50.362;7.568;2022-10-31T08:44:56;20.80;59.40
51476;DHT22;37554;50.362;7.568;2022-10-31T08:47:21;20.80;59.40
51476;DHT22;37554;50.362;7.568;2022-10-31T08:49:47;20.80;59.40
51476;DHT22;37554;50.362;7.568;2022-10-31T08:52:12;20.80;59.30
51476;DHT22;37554;50.362;7.568;2022-10-31T08:54:40;20.80;59.30
51476;DHT22;37554;50.362;7.568;2022-10-31T08:57:05;20.80;59.30
51476;DHT22;37554;50.362;7.568;2022-10-31T08:59:31;20.80;59.30
51476;DHT22;37554;50.362;7.568;2022-10-31T09:01:56;20.80;59.30
51476;DHT22;37554;50.362;7.568;2022-10-31T09:04:22;20.80;59.40
51476;DHT22;37554;50.362;7.568;2022-10-31T09:06:47;20.80;59.30
51476;DHT22;37554;50.362;7.568;2022-10-31T09:09:13;20.80;59.40
51476;DHT22;37554;50.362;7.568;2022-10-31T09:11:38;20.80;59.40
51476;DHT22;37554;50.362;7.568;2022-10-31T09:14:04;20.80;59.30
51476;DHT22;37554;50.362;7.568;2022-10-31T09:16:30;20.80;59.30
51476;DHT22;37554;50.362;7.568;2022-10-31T09:18:55;20.80;59.20
51476;DHT22;37554;50.362;7.568;2022-10-31T09:21:21;20.80;59.20
51476;DHT22;37554;50.362;7.568;2022-10-31T09:23:46;20.80;59.20
51476;DHT22;37554;50.362;7.568;2022-10-31T09:26:12;20.80;59.20
51476;DHT22;37554;50.362;7.568;2022-10-31T09:28:37;20.80;59.20
51476;DHT22;37554;50.362;7.568;2022-10-31T09:31:03;20.80;59.20
51476;DHT22;37554;50.362;7.568;2022-10-31T09:33:29;20.80;59.20
51476;DHT22;37554;50.362;7.568;2022-10-31T09:35:54;20.80;59.20
51476;DHT22;37554;50.362;7.568;2022-10-31T09:38:20;20.80;59.20
51476;DHT22;37554;50.362;7.568;2022-10-31T09:40:54;20.80;59.20
51476;DHT22;37554;50.362;7.568;2022-10-31T09:46:22;20.80;59.20
51476;DHT22;37554;50.362;7.568;2022-10-31T09:49:09;20.80;59.20
51476;DHT22;37554;50.362;7.568;2022-10-31T09:51:44;20.90;59.20
51476;DHT22;37554;50.362;7.568;2022-10-31T09:54:14;20.80;59.20
51476;DHT22;37554;50.362;7.568;2022-10-31T09:56:42;20.90;59.20
51476;DHT22;37554;50.362;7.568;2022-10-31T09:59:31;20.90;59.20
51476;DHT22;37554;50.362;7.568;2022-10-31T10:05:03;20.90;59.10
51476;DHT22;37554;50.362;7.568;2022-10-31T10:10:00;20.90;59.10
51476;DHT22;37554;50.362;7.568;2022-10-31T10:12:57;20.90;59.10
51476;DHT22;37554;50.362;7.568;2022-10-31T10:16:00;20.90;59.10
51476;DHT22;37554;50.362;7.568;2022-10-31T10:24:12;20.90;59.00
51476;DHT22;37554;50.362;7.568;2022-10-31T10:29:33;21.00;58.90
51476;DHT22;37554;50.362;7.568;2022-10-31T10:32:03;21.00;58.90
51476;DHT22;37554;50.362;7.568;2022-10-31T10:34:47;21.00;58.80
51476;DHT22;37554;50.362;7.568;2022-10-31T10:37:32;21.10;59.50
51476;DHT22;37554;50.362;7.568;2022-10-31T10:40:20;21.10;58.80
51476;DHT22;37554;50.362;7.568;2022-10-31T10:45:40;21.10;58.80
51476;DHT22;37554;50.362;7.568;2022-10-31T10:48:50;21.10;58.80
51476;DHT22;37554;50.362;7.568;2022-10-31T10:51:23;21.10;58.70
51476;DHT22;37554;50.362;7.568;2022-10-31T10:59:26;21.10;58.70
51476;DHT22;37554;50.362;7.568;2022-10-31T11:01:52;21.10;58.70
51476;DHT22;37554;50.362;7.568;2022-10-31T11:07:01;21.10;58.60
51476;DHT22;37554;50.362;7.568;2022-10-31T11:09:27;21.10;58.60
51476;DHT22;37554;50.362;7.568;2022-10-31T11:11:53;21.10;58.60
51476;DHT22;37554;50.362;7.568;2022-10-31T11:14:19;21.10;58.60
51476;DHT22;37554;50.362;7.568;2022-10-31T11:16:52;21.10;58.60
51476;DHT22;37554;50.362;7.568;2022-10-31T11:19:24;21.10;58.60
51476;DHT22;37554;50.362;7.568;2022-10-31T11:21:52;21.10;58.60
51476;DHT22;37554;50.362;7.568;2022-10-31T11:24:24;21.10;58.60
51476;DHT22;37554;50.362;7.568;2022-10-31T11:27:10;21.10;58.60
51476;DHT22;37554;50.362;7.568;2022-10-31T11:29:37;21.20;58.60
51476;DHT22;37554;50.362;7.568;2022-10-31T11:32:03;21.20;58.60
51476;DHT22;37554;50.362;7.568;2022-10-31T11:34:42;21.20;58.50
51476;DHT22;37554;50.362;7.568;2022-10-31T11:37:21;21.20;59.10
51476;DHT22;37554;50.362;7.568;2022-10-31T11:39:51;21.20;58.40
51476;DHT22;37554;50.362;7.568;2022-10-31T11:42:21;21.20;58.40
51476;DHT22;37554;50.362;7.568;2022-10-31T11:44:47;21.20;58.40
51476;DHT22;37554;50.362;7.568;2022-10-31T11:47:16;21.20;58.40
51476;DHT22;37554;50.362;7.568;2022-10-31T11:49:46;21.20;58.50
51476;DHT22;37554;50.362;7.568;2022-10-31T11:52:22;21.20;58.50
51476;DHT22;37554;50.362;7.568;2022-10-31T11:54:55;21.20;58.50
51476;DHT22;37554;50.362;7.568;2022-10-31T11:57:45;21.20;58.50
51476;DHT22;37554;50.362;7.568;2022-10-31T12:00:31;21.20;58.50
51476;DHT22;37554;50.362;7.568;2022-10-31T12:06:01;21.20;58.50
51476;DHT22;37554;50.362;7.568;2022-10-31T12:08:30;21.20;58.50
51476;DHT22;37554;50.362;7.568;2022-10-31T12:13:32;21.20;58.60
51476;DHT22;37554;50.362;7.568;2022-10-31T12:16:06;21.20;59.20
51476;DHT22;37554;50.362;7.568;2022-10-31T12:19:12;21.10;58.50
51476;DHT22;37554;50.362;7.568;2022-10-31T12:30:21;21.10;58.50
51476;DHT22;37554;50.362;7.568;2022-10-31T12:32:56;21.20;58.60
51476;DHT22;37554;50.362;7.568;2022-10-31T12:35:26;21.20;58.50
51476;DHT22;37554;50.362;7.568;2022-10-31T12:38:24;21.20;58.40
51476;DHT22;37554;50.362;7.568;2022-10-31T12:41:23;21.20;58.30
51476;DHT22;37554;50.362;7.568;2022-10-31T12:44:10;21.30;58.30
51476;DHT22;37554;50.362;7.568;2022-10-31T12:46:47;21.30;58.20
51476;DHT22;37554;50.362;7.568;2022-10-31T12:49:40;21.30;58.30
51476;DHT22;37554;50.362;7.568;2022-10-31T12:57:29;21.20;58.30
51476;DHT22;37554;50.362;7.568;2022-10-31T13:00:04;21.20;58.40
51476;DHT22;37554;50.362;7.568;2022-10-31T13:02:57;21.20;58.30
51476;DHT22;37554;50.362;7.568;2022-10-31T13:05:33;21.20;58.30
51476;DHT22;37554;50.362;7.568;2022-10-31T13:08:10;21.20;58.30
51476;DHT22;37554;50.362;7.568;2022-10-31T13:10:43;21.20;58.40
51476;DHT22;37554;50.362;7.568;2022-10-31T13:13:31;21.20;58.40
51476;DHT22;37554;50.362;7.568;2022-10-31T13:16:08;21.20;58.40
51476;DHT22;37554;50.362;7.568;2022-10-31T13:21:30;21.20;58.40
51476;DHT22;37554;50.362;7.568;2022-10-31T13:23:59;21.20;58.30
51476;DHT22;37554;50.362;7.568;2022-10-31T13:26:36;21.30;58.30
51476;DHT22;37554;50.362;7.568;2022-10-31T13:29:22;21.20;58.30
51476;DHT22;37554;50.362;7.568;2022-10-31T13:31:50;21.20;58.30
51476;DHT22;37554;50.362;7.568;2022-10-31T13:34:32;21.20;58.40
51476;DHT22;37554;50.362;7.568;2022-10-31T13:37:56;21.20;58.40
51476;DHT22;37554;50.362;7.568;2022-10-31T13:42:55;21.20;58.50
51476;DHT22;37554;50.362;7.568;2022-10-31T13:45:25;21.10;59.10
51476;DHT22;37554;50.362;7.568;2022-10-31T13:50:42;21.10;58.50
51476;DHT22;37554;50.362;7.568;2022-10-31T13:55:45;21.20;58.60
51476;DHT22;37554;50.362;7.568;2022-10-31T13:58:30;21.20;58.50
51476;DHT22;37554;50.362;7.568;2022-10-31T14:03:37;21.20;58.30
51476;DHT22;37554;50.362;7.568;2022-10-31T14:06:04;21.20;58.20
51476;DHT22;37554;50.362;7.568;2022-10-31T14:08:33;21.20;58.30
51476;DHT22;37554;50.362;7.568;2022-10-31T14:10:59;21.20;58.40
51476;DHT22;37554;50.362;7.568;2022-10-31T14:13:38;21.20;59.10
51476;DHT22;37554;50.362;7.568;2022-10-31T14:16:18;21.10;58.40
51476;DHT22;37554;50.362;7.568;2022-10-31T14:18:48;21.10;58.50
51476;DHT22;37554;50.362;7.568;2022-10-31T14:23:53;21.10;58.60
51476;DHT22;37554;50.362;7.568;2022-10-31T14:26:31;21.10;58.60
51476;DHT22;37554;50.362;7.568;2022-10-31T14:29:21;21.10;58.70
51476;DHT22;37554;50.362;7.568;2022-10-31T14:34:22;21.10;58.60
51476;DHT22;37554;50.362;7.568;2022-10-31T14:50:51;21.70;57.30
51476;DHT22;37554;50.362;7.568;2022-10-31T14:53:29;21.90;57.10
51476;DHT22;37554;50.362;7.568;2022-10-31T14:55:56;22.10;56.90
51476;DHT22;37554;50.362;7.568;2022-10-31T14:58:32;22.10;56.50
51476;DHT22;37554;50.362;7.568;2022-10-31T15:00:59;22.00;56.50
51476;DHT22;37554;50.362;7.568;2022-10-31T15:03:30;21.90;56.90
51476;DHT22;37554;50.362;7.568;2022-10-31T15:06:00;21.90;56.90
51476;DHT22;37554;50.362;7.568;2022-10-31T15:08:44;21.80;56.90
51476;DHT22;37554;50.362;7.568;2022-10-31T15:11:13;21.70;57.10
51476;DHT22;37554;50.362;7.568;2022-10-31T15:13:44;21.60;57.50
51476;DHT22;37554;50.362;7.568;2022-10-31T15:16:11;21.50;57.60
51476;DHT22;37554;50.362;7.568;2022-10-31T15:18:46;21.40;57.80
51476;DHT22;37554;50.362;7.568;2022-10-31T15:21:15;21.30;57.90
51476;DHT22;37554;50.362;7.568;2022-10-31T15:23:42;21.30;58.10
51476;DHT22;37554;50.362;7.568;2022-10-31T15:26:16;21.30;58.10
51476;DHT22;37554;50.362;7.568;2022-10-31T15:28:43;21.30;58.20
51476;DHT22;37554;50.362;7.568;2022-10-31T15:31:17;21.30;58.20
51476;DHT22;37554;50.362;7.568;2022-10-31T15:33:46;21.30;58.10
51476;DHT22;37554;50.362;7.568;2022-10-31T15:36:25;21.30;58.10
51476;DHT22;37554;50.362;7.568;2022-10-31T15:38:51;21.30;58.10
51476;DHT22;37554;50.362;7.568;2022-10-31T15:41:31;21.30;58.20
51476;DHT22;37554;50.362;7.568;2022-10-31T15:44:12;21.20;58.20
51476;DHT22;37554;50.362;7.568;2022-10-31T15:46:38;21.20;58.30
51476;DHT22;37554;50.362;7.568;2022-10-31T15:49:03;21.20;58.30
51476;DHT22;37554;50.362;7.568;2022-10-31T15:51:32;21.10;58.40
51476;DHT22;37554;50.362;7.568;2022-10-31T15:53:58;21.10;58.40
51476;DHT22;37554;50.362;7.568;2022-10-31T15:56:29;21.10;58.50
51476;DHT22;37554;50.362;7.568;2022-10-31T15:58:57;21.10;58.60
51476;DHT22;37554;50.362;7.568;2022-10-31T16:01:29;21.00;58.60
51476;DHT22;37554;50.362;7.568;2022-10-31T16:06:26;21.00;58.60
51476;DHT22;37554;50.362;7.568;2022-10-31T16:08:51;21.00;58.70
51476;DHT22;37554;50.362;7.568;2022-10-31T16:16:46;20.90;58.80
51476;DHT22;37554;50.362;7.568;2022-10-31T16:19:29;20.90;58.80
51476;DHT22;37554;50.362;7.568;2022-10-31T16:22:06;20.90;58.80
51476;DHT22;37554;50.362;7.568;2022-10-31T16:24:37;20.90;58.80
51476;DHT22;37554;50.362;7.568;2022-10-31T16:27:07;20.90;58.90
51476;DHT22;37554;50.362;7.568;2022-10-31T16:29:46;20.90;58.90
51476;DHT22;37554;50.362;7.568;2022-10-31T16:34:58;20.90;58.90
51476;DHT22;37554;50.362;7.568;2022-10-31T16:37:24;20.90;58.90
51476;DHT22;37554;50.362;7.568;2022-10-31T16:39:50;20.90;59.00
51476;DHT22;37554;50.362;7.568;2022-10-31T16:42:15;20.90;59.00
51476;DHT22;37554;50.362;7.568;2022-10-31T16:44:44;20.90;59.00
51476;DHT22;37554;50.362;7.568;2022-10-31T16:47:14;20.90;59.10
51476;DHT22;37554;50.362;7.568;2022-10-31T16:49:42;20.90;59.10
51476;DHT22;37554;50.362;7.568;2022-10-31T16:52:07;20.90;59.10
51476;DHT22;37554;50.362;7.568;2022-10-31T16:54:33;20.90;59.10
51476;DHT22;37554;50.362;7.568;2022-10-31T16:56:59;20.80;59.10
51476;DHT22;37554;50.362;7.568;2022-10-31T16:59:26;20.90;59.10
51476;DHT22;37554;50.362;7.568;2022-10-31T17:01:53;20.80;59.10
51476;DHT22;37554;50.362;7.568;2022-10-31T17:04:19;20.90;59.10
51476;DHT22;37554;50.362;7.568;2022-10-31T17:06:45;20.80;59.20
51476;DHT22;37554;50.362;7.568;2022-10-31T17:09:11;20.80;59.10
51476;DHT22;37554;50.362;7.568;2022-10-31T17:11:44;20.80;59.20
51476;DHT22;37554;50.362;7.568;2022-10-31T17:14:10;20.80;59.20
51476;DHT22;37554;50.362;7.568;2022-10-31T17:16:37;20.80;59.20
51476;DHT22;37554;50.362;7.568;2022-10-31T17:19:02;20.80;59.20
51476;DHT22;37554;50.362;7.568;2022-10-31T17:21:28;20.80;59.20
51476;DHT22;37554;50.362;7.568;2022-10-31T17:23:54;20.80;59.20
51476;DHT22;37554;50.362;7.568;2022-10-31T17:26:20;20.80;59.20
51476;DHT22;37554;50.362;7.568;2022-10-31T17:28:46;20.80;59.20
51476;DHT22;37554;50.362;7.568;2022-10-31T17:31:20;20.80;59.20
51476;DHT22;37554;50.362;7.568;2022-10-31T17:33:46;20.80;59.20
51476;DHT22;37554;50.362;7.568;2022-10-31T17:36:12;20.80;59.30
51476;DHT22;37554;50.362;7.568;2022-10-31T17:38:38;20.80;60.00
51476;DHT22;37554;50.362;7.568;2022-10-31T17:41:07;20.80;59.40
51476;DHT22;37554;50.362;7.568;2022-10-31T17:43:33;20.80;59.40
51476;DHT22;37554;50.362;7.568;2022-10-31T17:45:59;20.80;59.50